Time;durP1;ratioP1;P1;durP2;ratioP2;P2;SDS_P1;SDS_P2;PMS_P1;PMS_P2;Temp;Humidity;BMP_temperature;BMP_pressure;BME280_temperature;BME280_humidity;BME280_pressure;Samples;Min_cycle;Max_cycle;Signal;HPM_P1;HPM_P2
2022/08/03 00:02:11;;;;;;;8.23;2.55;;;;;;;19.77;nan;101316.91;5034227;28;20120;-52
2022/08/03 00:04:36;;;;;;;10.60;2.70;;;;;;;19.69;nan;101317.41;5034400;28;20469;-50
2022/08/03 00:07:01;;;;;;;8.77;2.45;;;;;;;19.84;nan;101331.63;5015588;28;20037;-51
2022/08/03 00:09:27;;;;;;;8.48;2.60;;;;;;;19.79;nan;101323.03;5034475;28;20033;-49
2022/08/03 00:11:52;;;;;;;10.70;2.38;;;;;;;19.81;nan;101326.47;5033327;28;20030;-49
2022/08/03 00:14:17;;;;;;;9.75;2.47;;;;;;;19.81;nan;101321.13;5034384;28;20037;-51
2022/08/03 00:16:42;;;;;;;10.48;2.33;;;;;;;19.49;nan;101273.25;5033192;28;20041;-55
2022/08/03 00:19:08;;;;;;;9.88;2.20;;;;;;;19.45;nan;101266.38;5033992;28;20034;-53
2022/08/03 00:21:33;;;;;;;9.90;2.63;;;;;;;19.62;nan;101306.25;5034330;28;20026;-52
2022/08/03 00:23:58;;;;;;;6.18;2.60;;;;;;;19.73;nan;101318.91;5034240;28;20096;-51
2022/08/03 00:26:24;;;;;;;10.68;3.05;;;;;;;19.69;nan;101313.88;5034319;28;20037;-51
2022/08/03 00:28:49;;;;;;;13.80;3.53;;;;;;;19.61;nan;101301.84;5032577;28;20086;-47
2022/08/03 00:31:15;;;;;;;9.98;3.00;;;;;;;19.40;nan;101276.50;5032227;28;20482;-54
2022/08/03 00:33:40;;;;;;;10.40;2.67;;;;;;;19.64;nan;101309.66;5032613;28;20038;-52
2022/08/03 00:36:06;;;;;;;9.20;2.85;;;;;;;19.61;nan;101309.84;5033953;28;20396;-50
2022/08/03 00:38:31;;;;;;;8.98;3.30;;;;;;;19.38;nan;101280.19;5034237;28;20330;-50
2022/08/03 00:40:56;;;;;;;8.88;2.60;;;;;;;19.57;nan;101312.84;5034108;28;20041;-49
2022/08/03 00:43:25;;;;;;;12.10;3.22;;;;;;;19.40;nan;101286.31;5034018;28;20061;-51
2022/08/03 00:45:51;;;;;;;9.75;2.72;;;;;;;19.52;nan;101305.13;5033851;28;20523;-53
2022/08/03 00:48:16;;;;;;;11.75;2.88;;;;;;;19.43;nan;101289.66;5033584;28;20041;-48
2022/08/03 00:50:42;;;;;;;13.55;4.35;;;;;;;19.49;nan;101301.78;5033739;28;20044;-51
2022/08/03 00:53:10;;;;;;;13.98;3.50;;;;;;;19.19;nan;101263.56;5033732;28;20038;-49
2022/08/03 00:55:36;;;;;;;12.20;3.15;;;;;;;19.45;nan;101301.09;5032455;28;20497;-50
2022/08/03 00:58:05;;;;;;;14.32;2.97;;;;;;;19.26;nan;101263.13;5033696;28;20133;-51
2022/08/03 01:00:32;;;;;;;8.98;3.00;;;;;;;19.43;nan;101292.34;5033537;28;20044;-56
2022/08/03 01:02:57;;;;;;;12.77;3.05;;;;;;;19.40;nan;101289.84;5048881;28;20041;-54
2022/08/03 01:05:23;;;;;;;10.80;2.55;;;;;;;19.37;nan;101284.66;5033453;28;20040;-49
2022/08/03 01:08:06;;;;;;;12.80;3.30;;;;;;;19.35;nan;101286.56;5033579;28;20040;-50
2022/08/03 01:10:49;;;;;;;6.18;3.03;;;;;;;19.32;nan;101285.91;5033438;28;20088;-49
2022/08/03 01:13:39;;;;;;;6.90;2.28;;;;;;;19.33;nan;101285.81;5048634;28;20091;-51
2022/08/03 01:16:11;;;;;;;10.15;3.13;;;;;;;19.01;nan;101233.53;5033090;28;20037;-48
2022/08/03 01:19:22;;;;;;;9.45;2.63;;;;;;;19.32;nan;101285.91;5033348;28;20073;-50
2022/08/03 01:21:56;;;;;;;9.88;2.95;;;;;;;19.29;nan;101284.28;5048271;28;20484;-52
2022/08/03 01:24:30;;;;;;;11.30;3.20;;;;;;;19.23;nan;101282.00;5033214;28;20132;-52
2022/08/03 01:27:18;;;;;;;9.68;2.42;;;;;;;19.21;nan;101283.88;5033038;28;20534;-54
2022/08/03 01:29:57;;;;;;;9.63;3.20;;;;;;;19.18;nan;101289.41;5048443;28;20037;-52
2022/08/03 01:32:47;;;;;;;11.68;2.88;;;;;;;19.15;nan;101281.56;5033133;28;20217;-50
2022/08/03 01:35:16;;;;;;;12.20;3.13;;;;;;;19.14;nan;101281.69;5031292;28;20380;-53
2022/08/03 01:37:46;;;;;;;10.30;2.72;;;;;;;18.79;nan;101223.34;5032988;28;20037;-50
2022/08/03 01:40:12;;;;;;;8.90;2.90;;;;;;;18.81;nan;101236.56;5031607;28;20034;-50
2022/08/03 01:42:39;;;;;;;12.98;4.05;;;;;;;19.09;nan;101281.94;5032791;28;20554;-49
2022/08/03 01:45:06;;;;;;;8.93;2.75;;;;;;;19.03;nan;101272.50;5047982;28;20036;-51
2022/08/03 01:47:32;;;;;;;13.25;3.13;;;;;;;19.04;nan;101284.03;5048225;28;20056;-50
2022/08/03 01:49:59;;;;;;;11.98;3.22;;;;;;;18.96;nan;101256.97;5033134;28;20033;-51
2022/08/03 01:52:25;;;;;;;11.93;3.55;;;;;;;18.74;nan;101228.06;5031307;28;20044;-51
2022/08/03 01:54:52;;;;;;;9.57;2.90;;;;;;;18.73;nan;101225.50;5032726;28;20038;-52
2022/08/03 01:57:18;;;;;;;13.23;3.13;;;;;;;18.95;nan;101271.25;5032514;28;20112;-50
2022/08/03 01:59:44;;;;;;;9.55;3.40;;;;;;;18.45;nan;101192.44;5048113;28;20036;-53
2022/08/03 02:02:12;;;;;;;9.60;3.17;;;;;;;18.56;nan;101207.00;5047935;28;20071;-50
2022/08/03 02:04:38;;;;;;;8.38;2.83;;;;;;;18.87;nan;101268.19;5032507;28;20036;-52
2022/08/03 02:07:04;;;;;;;7.40;3.05;;;;;;;18.62;nan;101219.97;5031069;28;20391;-54
2022/08/03 02:09:30;;;;;;;7.25;3.65;;;;;;;18.85;nan;101268.31;5031051;28;20132;-47
2022/08/03 02:11:56;;;;;;;8.88;3.33;;;;;;;18.82;nan;101256.94;5031037;28;20458;-49
2022/08/03 02:14:22;;;;;;;11.93;2.80;;;;;;;18.57;nan;101217.53;5030867;28;20389;-50
2022/08/03 02:16:48;;;;;;;9.27;3.05;;;;;;;18.80;nan;101264.16;5031411;28;20091;-49
2022/08/03 02:19:15;;;;;;;10.77;3.35;;;;;;;18.75;nan;101258.25;5032429;28;20438;-54
2022/08/03 02:21:42;;;;;;;8.23;2.90;;;;;;;18.71;nan;101260.25;5031054;28;20143;-49
2022/08/03 02:24:08;;;;;;;12.63;3.50;;;;;;;18.43;nan;101218.34;5031169;28;20041;-48
2022/08/03 02:26:34;;;;;;;8.50;3.22;;;;;;;18.40;nan;101207.00;5014514;28;20037;-50
2022/08/03 02:29:02;;;;;;;9.48;3.13;;;;;;;18.72;nan;101259.31;5030868;28;20456;-50
2022/08/03 02:31:29;;;;;;;9.98;3.28;;;;;;;18.70;nan;101269.22;5047341;28;20175;-50
2022/08/03 02:33:58;;;;;;;9.90;3.90;;;;;;;18.69;nan;101258.63;5032094;28;20095;-49
2022/08/03 02:36:27;;;;;;;11.85;3.30;;;;;;;18.46;nan;101222.63;5047369;28;20038;-49
2022/08/03 02:38:56;;;;;;;8.15;2.95;;;;;;;18.62;nan;101241.28;5032247;28;20043;-47
2022/08/03 02:41:32;;;;;;;10.18;3.78;;;;;;;18.66;nan;101256.13;5031017;28;20037;-50
2022/08/03 02:44:02;;;;;;;8.95;3.13;;;;;;;18.42;nan;101211.28;5032265;28;20030;-48
2022/08/03 02:46:39;;;;;;;12.70;4.03;;;;;;;18.65;nan;101251.78;5047358;28;20048;-48
2022/08/03 02:49:05;;;;;;;11.85;3.00;;;;;;;18.43;nan;101210.34;5051456;28;20500;-54
2022/08/03 02:51:33;;;;;;;12.75;3.17;;;;;;;18.39;nan;101197.28;5034662;28;20477;-53
2022/08/03 02:54:01;;;;;;;13.88;3.63;;;;;;;18.40;nan;101191.00;5034676;28;20385;-50
2022/08/03 02:56:27;;;;;;;8.25;3.22;;;;;;;18.44;nan;101193.41;5034711;28;20060;-50
2022/08/03 02:58:52;;;;;;;8.05;2.67;;;;;;;18.71;nan;101240.75;5051195;28;20507;-46
2022/08/03 03:01:21;;;;;;;10.77;3.30;;;;;;;18.41;nan;101188.25;5035774;28;20057;-49
2022/08/03 03:03:48;;;;;;;12.80;3.30;;;;;;;18.72;nan;101237.09;5034505;28;20099;-52
2022/08/03 03:06:15;;;;;;;8.90;2.95;;;;;;;18.65;nan;101215.28;5051066;28;20040;-52
2022/08/03 03:08:41;;;;;;;9.75;4.30;;;;;;;18.68;nan;101230.25;5051179;28;20037;-50
2022/08/03 03:11:07;;;;;;;8.30;3.03;;;;;;;18.63;nan;101230.50;5035769;28;20132;-54
2022/08/03 03:13:32;;;;;;;12.30;3.63;;;;;;;18.37;nan;101194.72;5051017;28;20033;-54
2022/08/03 03:16:03;;;;;;;12.00;3.40;;;;;;;18.38;nan;101200.91;5035667;28;20041;-49
2022/08/03 03:18:30;;;;;;;10.73;3.30;;;;;;;18.57;nan;101235.34;5034248;28;20377;-50
2022/08/03 03:20:57;;;;;;;9.52;3.40;;;;;;;18.50;nan;101230.38;5035536;28;20530;-52
2022/08/03 03:23:24;;;;;;;10.45;2.90;;;;;;;18.54;nan;101237.25;5050504;28;20087;-51
2022/08/03 03:25:50;;;;;;;7.28;3.53;;;;;;;18.34;nan;101199.34;5034212;28;20120;-52
2022/08/03 03:28:15;;;;;;;14.75;3.55;;;;;;;18.47;nan;101235.88;5034092;28;20025;-53
2022/08/03 03:30:41;;;;;;;10.38;3.50;;;;;;;18.24;nan;101200.84;5033919;28;20507;-49
2022/08/03 03:33:06;;;;;;;10.77;3.50;;;;;;;18.18;nan;101195.88;5050271;28;20045;-49
2022/08/03 03:35:32;;;;;;;10.82;3.28;;;;;;;18.34;nan;101232.19;5034059;28;20033;-49
2022/08/03 03:37:57;;;;;;;11.23;4.60;;;;;;;18.25;nan;101221.22;5034156;28;20034;-51
2022/08/03 03:40:23;;;;;;;11.93;3.50;;;;;;;18.27;nan;101235.31;5035186;28;20046;-48
2022/08/03 03:42:49;;;;;;;11.93;4.13;;;;;;;18.30;nan;101245.81;5035216;28;20463;-49
2022/08/03 03:45:14;;;;;;;15.02;3.35;;;;;;;18.31;nan;101247.50;5050607;28;20456;-48
2022/08/03 03:47:39;;;;;;;15.52;3.47;;;;;;;18.00;nan;101205.78;5033417;28;20042;-50
2022/08/03 03:50:05;;;;;;;9.18;3.63;;;;;;;18.25;nan;101238.06;5017266;28;20080;-50
2022/08/03 03:52:32;;;;;;;11.65;3.63;;;;;;;18.03;nan;101210.09;5033648;28;20392;-53
2022/08/03 03:54:57;;;;;;;8.43;3.70;;;;;;;18.02;nan;101217.22;5033727;28;20464;-54
2022/08/03 03:57:22;;;;;;;8.93;3.05;;;;;;;18.27;nan;101259.31;5034328;28;20030;-51
2022/08/03 03:59:48;;;;;;;11.25;3.92;;;;;;;18.30;nan;101253.81;5034556;28;20034;-50
2022/08/03 04:02:13;;;;;;;11.00;3.58;;;;;;;18.29;nan;101241.41;5034517;28;20037;-50
2022/08/03 04:13:12;;;;;;;10.85;3.63;;;;;;;18.27;nan;101238.00;5034293;28;20095;-51
2022/08/03 04:15:38;;;;;;;12.90;4.93;;;;;;;18.25;nan;101243.38;5050091;28;20425;-50
2022/08/03 04:18:06;;;;;;;14.88;4.30;;;;;;;17.99;nan;101193.41;5034479;28;20061;-50
2022/08/03 04:20:34;;;;;;;11.68;4.20;;;;;;;18.24;nan;101247.00;5034485;28;20071;-51
2022/08/03 04:23:00;;;;;;;13.05;4.30;;;;;;;18.25;nan;101248.72;5032927;28;20068;-53
2022/08/03 04:25:29;;;;;;;10.27;3.85;;;;;;;18.04;nan;101209.97;5034610;28;20033;-52
2022/08/03 04:27:57;;;;;;;10.30;3.90;;;;;;;18.22;nan;101240.91;5034282;28;20033;-53
2022/08/03 04:30:23;;;;;;;12.20;4.07;;;;;;;18.27;nan;101252.16;5032729;28;20056;-49
2022/08/03 04:32:50;;;;;;;10.93;3.65;;;;;;;18.28;nan;101250.34;5049348;28;20048;-53
2022/08/03 04:35:17;;;;;;;11.25;4.75;;;;;;;18.05;nan;101222.38;5032999;28;20121;-53
2022/08/03 04:37:47;;;;;;;13.55;3.65;;;;;;;18.06;nan;101212.56;5034009;28;20029;-54
2022/08/03 04:40:14;;;;;;;11.40;3.88;;;;;;;18.31;nan;101256.38;5033030;28;20036;-52
2022/08/03 04:42:41;;;;;;;12.73;4.22;;;;;;;18.12;nan;101226.41;5032846;28;20042;-52
2022/08/03 04:45:12;;;;;;;11.55;4.00;;;;;;;18.33;nan;101249.13;5032668;28;20029;-52
2022/08/03 04:47:37;;;;;;;;;;;;;;;18.33;nan;101253.63;5033132;28;20107;-52
2022/08/03 04:50:03;;;;;;;11.63;4.03;;;;;;;18.31;nan;101248.38;5034087;28;20322;-49
2022/08/03 04:52:29;;;;;;;10.82;3.80;;;;;;;18.16;nan;101237.72;5033767;28;20041;-53
2022/08/03 04:54:55;;;;;;;12.40;5.03;;;;;;;18.26;nan;101252.25;5049180;28;20079;-47
2022/08/03 04:57:20;;;;;;;10.38;3.65;;;;;;;18.33;nan;101262.44;5033806;28;20094;-52
2022/08/03 04:59:48;;;;;;;15.27;4.07;;;;;;;18.36;nan;101250.75;5032670;28;20478;-50
2022/08/03 05:02:14;;;;;;;10.80;3.80;;;;;;;18.25;nan;101248.72;5033496;28;20037;-51
2022/08/03 05:04:45;;;;;;;14.18;4.28;;;;;;;18.33;nan;101267.78;5033410;28;20485;-51
2022/08/03 05:07:10;;;;;;;12.50;4.53;;;;;;;18.40;nan;101273.63;5032432;28;20037;-50
2022/08/03 05:09:37;;;;;;;16.08;4.22;;;;;;;18.46;nan;101278.59;5032621;28;20468;-49
2022/08/03 05:12:03;;;;;;;17.00;4.53;;;;;;;18.46;nan;101265.28;5033452;28;20495;-53
2022/08/03 05:14:28;;;;;;;11.88;4.43;;;;;;;18.29;nan;101244.06;5032105;28;20044;-51
2022/08/03 05:16:53;;;;;;;14.95;4.30;;;;;;;18.41;nan;101240.72;5033276;28;20064;-48
2022/08/03 05:19:19;;;;;;;9.88;3.85;;;;;;;18.72;nan;101287.78;5033428;28;20507;-50
2022/08/03 05:21:44;;;;;;;10.40;4.13;;;;;;;18.79;nan;101275.81;5032140;28;20550;-53
2022/08/03 05:24:09;;;;;;;12.88;4.25;;;;;;;18.91;nan;101286.59;5033091;28;20038;-52
2022/08/03 05:26:35;;;;;;;11.63;4.80;;;;;;;19.04;nan;101274.25;5033438;28;20042;-50
2022/08/03 05:29:00;;;;;;;14.60;4.95;;;;;;;19.12;nan;101286.28;5032974;28;20037;-51
2022/08/03 05:31:25;;;;;;;12.07;4.13;;;;;;;19.20;nan;101282.19;5033149;28;20056;-47
2022/08/03 05:33:51;;;;;;;11.43;4.68;;;;;;;19.27;nan;101282.63;5032946;28;20045;-53
2022/08/03 05:36:16;;;;;;;8.35;4.00;;;;;;;19.40;nan;101284.50;5032843;28;20388;-50
2022/08/03 05:38:41;;;;;;;9.25;4.70;;;;;;;19.45;nan;101295.75;5032938;28;20033;-52
2022/08/03 05:41:07;;;;;;;15.70;4.88;;;;;;;19.51;nan;101284.69;5031761;28;20040;-54
2022/08/03 05:43:32;;;;;;;9.05;4.13;;;;;;;19.59;nan;101287.75;5032813;28;20033;-52
2022/08/03 05:45:59;;;;;;;9.32;4.05;;;;;;;19.62;nan;101284.88;5032948;28;20044;-49
2022/08/03 05:48:25;;;;;;;11.57;4.95;;;;;;;19.73;nan;101286.88;5032578;28;20120;-52
2022/08/03 05:50:50;;;;;;;12.57;5.95;;;;;;;19.81;nan;101289.06;5032938;28;20120;-50
2022/08/03 05:53:15;;;;;;;15.25;5.85;;;;;;;19.87;nan;101284.19;5032712;28;20141;-52
2022/08/03 05:55:41;;;;;;;12.25;5.25;;;;;;;19.74;nan;101250.34;5031418;28;20376;-51
2022/08/03 05:58:06;;;;;;;9.13;5.25;;;;;;;19.98;nan;101303.06;5032568;28;20034;-49
2022/08/03 06:00:31;;;;;;;15.65;5.60;;;;;;;20.03;nan;101297.41;5032735;28;20083;-50
2022/08/03 06:02:57;;;;;;;19.40;8.00;;;;;;;20.03;nan;101305.44;5032455;28;20033;-50
2022/08/03 06:05:22;;;;;;;13.88;7.50;;;;;;;20.03;nan;101292.94;5032388;28;20041;-52
2022/08/03 06:07:47;;;;;;;14.95;6.53;;;;;;;19.91;nan;101261.66;5032708;28;20065;-51
2022/08/03 06:10:13;;;;;;;16.02;6.63;;;;;;;20.15;nan;101289.47;5032195;28;20454;-52
2022/08/03 06:12:40;;;;;;;17.10;7.57;;;;;;;20.19;nan;101295.47;5032407;28;20046;-53
2022/08/03 06:15:06;;;;;;;12.20;8.50;;;;;;;19.95;nan;101251.63;5047610;28;20365;-48
2022/08/03 06:17:31;;;;;;;16.05;7.90;;;;;;;19.98;nan;101265.66;5032135;28;20116;-50
2022/08/03 06:19:56;;;;;;;17.00;8.50;;;;;;;19.93;nan;101251.75;5032186;28;20113;-52
2022/08/03 06:22:22;;;;;;;19.27;8.75;;;;;;;20.23;nan;101297.84;5031988;28;20125;-50
2022/08/03 06:24:47;;;;;;;17.23;7.57;;;;;;;20.08;nan;101255.25;5032045;28;20048;-52
2022/08/03 06:27:12;;;;;;;14.98;7.68;;;;;;;20.37;nan;101290.78;5032318;28;20037;-54
2022/08/03 06:29:38;;;;;;;20.67;8.57;;;;;;;20.39;nan;101297.75;5030971;28;20131;-52
2022/08/03 06:32:04;;;;;;;18.10;9.52;;;;;;;20.21;nan;101281.06;5031642;28;20049;-51
2022/08/03 06:34:29;;;;;;;19.13;10.43;;;;;;;20.33;nan;101290.13;5031985;28;20407;-48
2022/08/03 06:36:54;;;;;;;15.70;10.38;;;;;;;20.32;nan;101291.06;5032199;28;20044;-51
2022/08/03 06:39:20;;;;;;;23.10;9.25;;;;;;;20.47;nan;101313.25;5047349;28;20107;-49
2022/08/03 06:41:46;;;;;;;17.42;9.18;;;;;;;20.32;nan;101276.84;5031781;28;20043;-49
2022/08/03 06:44:11;;;;;;;16.13;8.88;;;;;;;20.55;nan;101311.81;5032110;28;20041;-52
2022/08/03 06:46:36;;;;;;;11.90;8.75;;;;;;;20.63;nan;101312.19;5030640;28;20053;-51
2022/08/03 06:49:02;;;;;;;16.17;7.97;;;;;;;20.51;nan;101294.25;5030614;28;20108;-53
2022/08/03 06:51:28;;;;;;;16.88;7.88;;;;;;;20.75;nan;101324.69;5032102;28;20068;-51
2022/08/03 06:53:53;;;;;;;17.10;7.93;;;;;;;20.76;nan;101318.41;5031858;28;20080;-50
2022/08/03 06:56:19;;;;;;;11.60;7.05;;;;;;;20.76;nan;101322.88;5032084;28;20434;-49
2022/08/03 06:58:46;;;;;;;11.85;7.55;;;;;;;20.58;nan;101289.34;5014355;28;20052;-51
2022/08/03 07:01:11;;;;;;;12.38;6.45;;;;;;;20.90;nan;101321.97;5031724;28;20049;-51
2022/08/03 07:03:37;;;;;;;11.93;6.57;;;;;;;20.75;nan;101287.25;5031804;28;20457;-48
2022/08/03 07:06:02;;;;;;;10.43;6.82;;;;;;;20.87;nan;101290.91;5031622;28;20037;-47
2022/08/03 07:08:28;;;;;;;14.52;6.20;;;;;;;21.22;nan;101320.66;5031826;28;20385;-47
2022/08/03 07:10:53;;;;;;;16.83;6.97;;;;;;;21.18;nan;101290.56;5031621;28;20075;-49
2022/08/03 07:13:18;;;;;;;12.40;6.28;;;;;;;21.52;nan;101334.59;5031522;28;20045;-54
2022/08/03 07:15:44;;;;;;;13.15;6.57;;;;;;;21.61;nan;101346.50;5031737;28;20038;-49
2022/08/03 07:18:09;;;;;;;13.75;7.88;;;;;;;21.42;nan;101322.81;5031654;28;20033;-53
2022/08/03 07:20:35;;;;;;;13.88;7.97;;;;;;;21.70;nan;101367.28;5031765;28;20488;-52
2022/08/03 07:23:00;;;;;;;15.93;7.43;;;;;;;21.65;nan;101370.28;5031481;28;20061;-50
2022/08/03 07:25:25;;;;;;;19.15;8.35;;;;;;;21.59;nan;101364.50;5031600;28;20076;-51
2022/08/03 07:27:51;;;;;;;15.00;7.75;;;;;;;21.58;nan;101366.31;5031414;28;20041;-48
2022/08/03 07:30:16;;;;;;;18.33;8.00;;;;;;;21.44;nan;101330.75;5031456;28;20091;-46
2022/08/03 07:32:42;;;;;;;14.32;8.20;;;;;;;21.86;nan;101371.44;5031662;28;20418;-52
2022/08/03 07:35:08;;;;;;;15.27;7.90;;;;;;;21.92;nan;101362.13;5034281;28;20472;-49
2022/08/03 07:37:34;;;;;;;12.57;7.22;;;;;;;21.91;nan;101346.19;5035233;28;20029;-51
2022/08/03 07:40:00;;;;;;;13.65;7.10;;;;;;;22.19;nan;101378.94;5035108;28;20026;-51
2022/08/03 07:42:26;;;;;;;16.88;7.68;;;;;;;22.01;nan;101342.72;5034878;28;20377;-51
2022/08/03 07:44:52;;;;;;;13.55;6.88;;;;;;;22.20;nan;101385.16;5033767;28;20037;-48
2022/08/03 07:47:38;;;;;;;16.23;7.75;;;;;;;22.33;nan;101384.16;5034822;28;20126;-49
2022/08/03 07:50:05;;;;;;;14.10;6.63;;;;;;;22.42;nan;101358.47;5034721;28;20041;-52
2022/08/03 07:52:50;;;;;;;11.07;6.05;;;;;;;23.13;nan;101398.75;5033908;28;20053;-50
2022/08/03 07:55:16;;;;;;;13.32;6.15;;;;;;;23.74;nan;101367.19;5034815;28;20034;-50
2022/08/03 07:57:42;;;;;;;12.55;6.45;;;;;;;24.34;nan;101408.03;5033520;28;20034;-55
2022/08/03 08:00:13;;;;;;;13.73;5.45;;;;;;;24.58;nan;101380.94;5034959;28;20038;-53
2022/08/03 08:02:40;;;;;;;10.73;6.38;;;;;;;24.58;nan;101421.31;5050319;28;20061;-52
2022/08/03 08:05:05;;;;;;;14.98;5.85;;;;;;;24.65;nan;101411.78;5050119;28;20080;-52
2022/08/03 08:07:31;;;;;;;11.80;5.20;;;;;;;24.73;nan;101368.91;5000457;28;20065;-54
2022/08/03 08:09:56;;;;;;;12.93;5.53;;;;;;;25.08;nan;101417.16;5035158;28;20037;-54
2022/08/03 08:12:21;;;;;;;13.82;5.07;;;;;;;25.08;nan;101382.16;5034528;28;20060;-53
2022/08/03 08:14:47;;;;;;;14.82;4.95;;;;;;;25.76;nan;101432.03;5034620;28;20033;-53
2022/08/03 08:17:12;;;;;;;10.07;5.20;;;;;;;26.14;nan;101429.53;5033284;28;20033;-53
2022/08/03 08:19:38;;;;;;;11.90;6.15;;;;;;;26.41;nan;101429.84;5033444;28;20034;-48
2022/08/03 08:22:03;;;;;;;11.75;5.63;;;;;;;26.39;nan;101418.31;5034441;28;20040;-53
2022/08/03 08:24:32;;;;;;;10.50;5.22;;;;;;;26.13;nan;101395.44;5033014;28;20025;-50
2022/08/03 08:26:58;;;;;;;13.07;6.05;;;;;;;26.23;nan;101382.91;5033129;28;20052;-49
2022/08/03 08:29:24;;;;;;;10.98;5.72;;;;;;;26.52;nan;101394.63;5033104;28;20514;-48
2022/08/03 08:31:49;;;;;;;9.38;5.50;;;;;;;27.19;nan;101437.97;5034154;28;20041;-49
2022/08/03 08:34:15;;;;;;;11.30;5.15;;;;;;;27.58;nan;101440.69;5033751;28;20077;-49
2022/08/03 08:36:41;;;;;;;11.60;6.15;;;;;;;27.81;nan;101433.94;5034070;28;20072;-50
2022/08/03 08:39:06;;;;;;;12.45;5.88;;;;;;;28.07;nan;101442.28;5034243;28;20045;-52
2022/08/03 08:41:33;;;;;;;12.13;5.43;;;;;;;28.48;nan;101441.84;5032815;28;20069;-54
2022/08/03 08:43:59;;;;;;;13.18;5.45;;;;;;;28.60;nan;101391.88;5032724;28;20033;-50
2022/08/03 08:46:25;;;;;;;14.35;4.82;;;;;;;28.99;nan;101401.44;5033990;28;20391;-52
2022/08/03 08:48:53;;;;;;;13.80;5.57;;;;;;;29.38;nan;101461.66;5049428;28;20037;-49
2022/08/03 08:51:19;;;;;;;11.77;5.60;;;;;;;29.36;nan;101447.41;5049307;28;20219;-52
2022/08/03 08:53:47;;;;;;;14.35;6.03;;;;;;;29.03;nan;101412.81;5048910;28;20455;-50
2022/08/03 08:56:16;;;;;;;16.48;7.05;;;;;;;28.50;nan;101410.03;5048858;28;20061;-51
2022/08/03 08:58:51;;;;;;;10.20;6.07;;;;;;;28.73;nan;101449.25;5048704;28;20065;-51
2022/08/03 09:01:18;;;;;;;13.32;6.10;;;;;;;28.75;nan;101441.00;5031951;28;20037;-55
2022/08/03 09:03:44;;;;;;;12.80;6.13;;;;;;;28.40;nan;101399.22;5048943;28;20037;-50
2022/08/03 09:06:09;;;;;;;12.18;5.80;;;;;;;28.55;nan;101455.63;5033415;28;20039;-49
2022/08/03 09:08:34;;;;;;;12.73;5.95;;;;;;;28.48;nan;101414.75;5033339;28;20033;-53
2022/08/03 09:11:00;;;;;;;9.50;5.20;;;;;;;28.83;nan;101422.97;5033338;28;20038;-52
2022/08/03 09:13:25;;;;;;;14.50;5.82;;;;;;;29.37;nan;101487.06;5033524;28;20037;-49
2022/08/03 09:16:23;;;;;;;14.30;5.53;;;;;;;29.28;nan;101473.56;5033497;28;20029;-54
2022/08/03 09:18:52;;;;;;;15.00;5.28;;;;;;;29.25;nan;101428.66;5010303;28;20056;-54
2022/08/03 09:21:25;;;;;;;11.63;5.93;;;;;;;29.91;nan;101488.75;5033429;28;20034;-51
2022/08/03 09:23:52;;;;;;;15.30;5.90;;;;;;;29.81;nan;101478.97;5048468;28;20040;-51
2022/08/03 09:26:25;;;;;;;14.07;5.63;;;;;;;29.89;nan;101482.59;5033289;28;20483;-50
2022/08/03 09:28:56;;;;;;;13.80;6.45;;;;;;;29.98;nan;101445.50;5031866;28;20484;-49
2022/08/03 09:31:38;;;;;;;12.02;5.22;;;;;;;29.49;nan;101439.72;5032996;28;20049;-52
2022/08/03 09:34:05;;;;;;;13.02;5.57;;;;;;;29.89;nan;101487.19;5048323;28;20081;-53
2022/08/03 09:36:39;;;;;;;10.90;4.95;;;;;;;30.03;nan;101492.03;5031886;28;20044;-52
2022/08/03 09:39:09;;;;;;;11.88;4.65;;;;;;;30.13;nan;101481.91;5031759;28;20036;-55
2022/08/03 09:41:35;;;;;;;11.93;5.00;;;;;;;30.38;nan;101488.38;5032967;28;20071;-54
2022/08/03 09:44:00;;;;;;;11.05;5.28;;;;;;;30.52;nan;101442.44;5032757;28;20033;-53
2022/08/03 09:46:30;;;;;;;11.88;4.78;;;;;;;30.90;nan;101487.22;5033043;28;20127;-55
2022/08/03 09:49:08;;;;;;;8.63;4.73;;;;;;;31.15;nan;101482.72;5032824;28;20037;-56
2022/08/03 09:51:33;;;;;;;9.77;4.50;;;;;;;31.35;nan;101489.53;5032750;28;20033;-55
2022/08/03 09:54:02;;;;;;;14.50;4.93;;;;;;;31.54;nan;101480.25;5032701;28;20091;-51
2022/08/03 09:56:45;;;;;;;8.60;4.38;;;;;;;31.15;nan;101450.09;5032666;28;20108;-56
2022/08/03 09:59:12;;;;;;;9.60;4.50;;;;;;;31.44;nan;101457.75;5048107;28;20036;-55
2022/08/03 10:01:40;;;;;;;12.80;4.57;;;;;;;31.68;nan;101488.56;5031488;28;20112;-52
2022/08/03 10:04:11;;;;;;;10.55;4.60;;;;;;;31.77;nan;101468.50;5032523;28;20041;-55
2022/08/03 10:06:37;;;;;;;10.15;4.53;;;;;;;32.06;nan;101491.63;5032349;28;20076;-53
2022/08/03 10:09:07;;;;;;;9.32;4.10;;;;;;;32.35;nan;101496.47;5031258;28;20041;-54
2022/08/03 10:11:36;;;;;;;10.63;4.07;;;;;;;32.38;nan;101453.38;5032482;28;20436;-52
2022/08/03 10:14:07;;;;;;;12.45;5.00;;;;;;;32.33;nan;101461.25;5032298;28;20471;-51
2022/08/03 10:16:34;;;;;;;10.75;4.13;;;;;;;32.57;nan;101496.63;5032403;28;20431;-53
2022/08/03 10:19:00;;;;;;;12.20;4.95;;;;;;;32.80;nan;101504.88;5032088;28;20030;-49
2022/08/03 10:21:31;;;;;;;9.93;4.40;;;;;;;32.83;nan;101452.69;5030859;28;20034;-55
2022/08/03 10:23:56;;;;;;;14.20;5.63;;;;;;;33.03;nan;101462.13;5032553;28;20087;-54
2022/08/03 10:26:23;;;;;;;8.25;4.97;;;;;;;33.29;nan;101489.94;5031243;28;20038;-53
2022/08/03 10:28:49;;;;;;;12.65;4.82;;;;;;;32.97;nan;101471.03;5031103;28;20480;-55
2022/08/03 10:31:15;;;;;;;11.98;5.55;;;;;;;33.28;nan;101484.66;5047385;28;20046;-53
2022/08/03 10:33:48;;;;;;;12.80;4.57;;;;;;;33.51;nan;101503.78;5030949;28;20448;-52
2022/08/03 10:36:14;;;;;;;16.15;5.93;;;;;;;33.92;nan;101503.25;5031885;28;20029;-53
2022/08/03 10:38:45;;;;;;;7.43;3.80;;;;;;;34.14;nan;101509.72;5047462;28;20546;-53
2022/08/03 10:41:11;;;;;;;11.73;4.50;;;;;;;33.62;nan;101463.28;5030870;28;20026;-54
2022/08/03 10:43:52;;;;;;;9.63;3.72;;;;;;;33.72;nan;101461.09;5031317;28;20586;-54
2022/08/03 10:46:19;;;;;;;8.70;3.63;;;;;;;34.23;nan;101492.22;5030714;28;20026;-53
2022/08/03 10:48:45;;;;;;;12.00;4.30;;;;;;;34.35;nan;101498.06;5032215;28;20037;-51
2022/08/03 10:51:11;;;;;;;9.38;3.88;;;;;;;34.29;nan;101479.69;5047501;28;20034;-53
2022/08/03 10:53:42;;;;;;;8.45;3.35;;;;;;;34.61;nan;101479.31;5031709;28;20045;-55
2022/08/03 10:59:45;;;;;;;15.38;4.13;;;;;;;34.85;nan;101517.25;5032223;28;20393;-53
2022/08/03 11:02:12;;;;;;;9.98;4.22;;;;;;;34.66;nan;101504.19;5031963;28;20041;-53
2022/08/03 11:04:38;;;;;;;11.50;3.45;;;;;;;34.99;nan;101496.41;5030646;28;20037;-51
2022/08/03 11:07:21;;;;;;;8.20;3.65;;;;;;;34.61;nan;101501.19;5031987;28;20036;-55
2022/08/03 11:09:52;;;;;;;11.80;3.65;;;;;;;34.40;nan;101501.91;5035457;28;20025;-55
2022/08/03 11:12:20;;;;;;;15.90;4.85;;;;;;;34.71;nan;101490.78;5035638;28;20072;-50
2022/08/03 11:14:47;;;;;;;10.45;3.72;;;;;;;34.76;nan;101452.78;5034456;28;20553;-54
2022/08/03 11:17:12;;;;;;;9.10;3.15;;;;;;;35.24;nan;101488.69;5034557;28;20033;-53
2022/08/03 11:19:48;;;;;;;13.75;4.00;;;;;;;35.03;nan;101440.22;5034788;28;20029;-52
2022/08/03 11:22:15;;;;;;;10.00;3.75;;;;;;;35.54;nan;101491.13;5035468;28;20480;-53
2022/08/03 11:24:41;;;;;;;6.15;3.38;;;;;;;35.35;nan;101494.50;5033761;28;20051;-51
2022/08/03 11:27:15;;;;;;;12.88;3.30;;;;;;;35.41;nan;101493.72;5035393;28;20033;-54
2022/08/03 11:29:56;;;;;;;10.23;3.10;;;;;;;35.60;nan;101488.66;5035336;28;20037;-54
2022/08/03 11:32:36;;;;;;;13.55;3.47;;;;;;;35.67;nan;101508.75;5035389;28;20049;-55
2022/08/03 11:35:26;;;;;;;8.10;2.45;;;;;;;35.23;nan;101487.00;5035184;28;20065;-52
2022/08/03 11:37:57;;;;;;;8.45;2.92;;;;;;;35.16;nan;101497.03;5035297;28;20045;-52
2022/08/03 11:40:34;;;;;;;7.10;2.80;;;;;;;35.60;nan;101502.34;5035085;28;20038;-52
2022/08/03 11:43:01;;;;;;;9.32;3.08;;;;;;;35.87;nan;101493.31;5034992;28;20029;-54
2022/08/03 11:45:26;;;;;;;12.07;3.72;;;;;;;36.04;nan;101478.31;5035120;28;20033;-50
2022/08/03 11:47:53;;;;;;;9.35;2.83;;;;;;;36.40;nan;101491.81;5035240;28;20048;-53
2022/08/03 11:50:20;;;;;;;13.80;2.95;;;;;;;36.79;nan;101494.75;5050131;28;20411;-52
2022/08/03 11:52:45;;;;;;;11.40;2.95;;;;;;;37.09;nan;101487.09;5049940;28;20052;-54